createdAt,value
2018-09-06T00:01:37.384Z,28.03
2018-09-06T00:04:05.603Z,29.53
2018-09-06T00:06:33.820Z,27.30
2018-09-06T00:09:02.032Z,29.50
2018-09-06T00:11:30.240Z,27.63
2018-09-06T00:13:58.472Z,30.30
2018-09-06T00:16:26.668Z,33.20
2018-09-06T00:18:54.855Z,28.97
2018-09-06T00:21:23.082Z,27.13
2018-09-06T00:23:51.311Z,32.23
2018-09-06T00:26:19.579Z,30.57
2018-09-06T00:28:47.864Z,26.87
2018-09-06T00:31:16.056Z,28.50
2018-09-06T00:33:44.337Z,27.77
2018-09-06T00:36:12.614Z,31.33
2018-09-06T00:38:40.876Z,27.30
2018-09-06T00:41:09.076Z,30.60
2018-09-06T00:43:37.375Z,24.13
2018-09-06T00:46:05.607Z,26.23
2018-09-06T00:48:33.796Z,26.27
2018-09-06T00:51:02.131Z,29.23
2018-09-06T00:53:30.330Z,28.47
2018-09-06T00:55:58.553Z,26.60
2018-09-06T00:58:26.836Z,28.53
2018-09-06T01:00:55.066Z,29.13
2018-09-06T01:03:23.354Z,25.60
2018-09-06T01:05:51.603Z,26.37
2018-09-06T01:08:19.819Z,31.30
2018-09-06T01:10:48.003Z,27.60
2018-09-06T01:13:16.266Z,28.70
2018-09-06T01:15:44.568Z,27.13
2018-09-06T01:18:12.735Z,24.97
2018-09-06T01:20:40.971Z,26.90
2018-09-06T01:23:09.256Z,29.43
2018-09-06T01:25:42.894Z,26.47
2018-09-06T01:28:11.103Z,31.27
2018-09-06T01:30:39.303Z,29.37
2018-09-06T01:33:07.608Z,31.23
2018-09-06T01:35:35.851Z,32.47
2018-09-06T01:38:04.079Z,35.17
2018-09-06T01:40:32.407Z,29.90
2018-09-06T01:43:00.627Z,29.80
2018-09-06T01:45:28.863Z,33.47
2018-09-06T01:47:57.159Z,32.47
2018-09-06T01:50:25.378Z,30.83
2018-09-06T01:52:53.616Z,40.93
2018-09-06T01:55:21.840Z,31.83
2018-09-06T01:57:50.036Z,39.57
2018-09-06T02:00:18.308Z,37.33
2018-09-06T02:02:46.641Z,31.50
2018-09-06T02:05:18.982Z,36.17
2018-09-06T02:07:47.293Z,38.80
2018-09-06T02:10:15.545Z,39.50
2018-09-06T02:12:43.737Z,33.60
2018-09-06T02:15:11.926Z,35.73
2018-09-06T02:17:40.106Z,40.13
2018-09-06T02:20:08.349Z,32.97
2018-09-06T02:22:36.686Z,40.50
2018-09-06T02:25:05.008Z,39.90
2018-09-06T02:27:33.227Z,36.60
2018-09-06T02:30:01.421Z,36.90
2018-09-06T02:32:29.656Z,37.77
2018-09-06T02:34:57.919Z,37.00
2018-09-06T02:37:26.174Z,34.80
2018-09-06T02:39:54.372Z,36.17
2018-09-06T02:42:22.631Z,37.63
2018-09-06T02:44:50.840Z,43.33
2018-09-06T02:47:19.098Z,36.60
2018-09-06T02:49:52.795Z,34.13
2018-09-06T02:52:21.032Z,37.73
2018-09-06T02:54:49.227Z,34.73
2018-09-06T02:57:17.586Z,35.63
2018-09-06T02:59:47.125Z,37.83
2018-09-06T03:02:15.315Z,40.57
2018-09-06T03:04:43.614Z,45.00
2018-09-06T03:07:11.823Z,40.37
2018-09-06T03:09:40.050Z,38.23
2018-09-06T03:12:09.287Z,39.10
2018-09-06T03:14:37.557Z,40.40
2018-09-06T03:17:05.808Z,35.80
2018-09-06T03:19:34.011Z,39.97
2018-09-06T03:22:02.222Z,38.27
2018-09-06T03:24:30.423Z,40.37
2018-09-06T03:26:58.703Z,34.87
2018-09-06T03:29:26.953Z,39.80
2018-09-06T03:31:55.137Z,39.07
2018-09-06T03:34:23.326Z,40.20
2018-09-06T03:36:51.543Z,41.27
2018-09-06T03:39:19.770Z,35.63
2018-09-06T03:41:47.967Z,40.87
2018-09-06T03:44:16.175Z,37.40
2018-09-06T03:46:44.417Z,43.40
2018-09-06T03:49:12.671Z,40.67
2018-09-06T03:51:40.840Z,40.87
2018-09-06T03:54:09.055Z,38.87
2018-09-06T03:56:37.271Z,44.93
2018-09-06T03:59:05.496Z,38.57
2018-09-06T04:01:33.764Z,42.83
2018-09-06T04:04:01.995Z,39.00
2018-09-06T04:06:30.241Z,37.80
2018-09-06T04:08:58.443Z,37.97
2018-09-06T04:11:26.646Z,44.77
2018-09-06T04:13:54.915Z,48.27
2018-09-06T04:16:23.240Z,43.23
2018-09-06T04:18:51.541Z,46.90
2018-09-06T04:21:19.740Z,52.73
2018-09-06T04:23:47.973Z,54.33
2018-09-06T04:26:16.223Z,35.13
2018-09-06T04:28:44.440Z,45.03
2018-09-06T04:31:12.679Z,46.37
2018-09-06T04:33:40.882Z,37.70
2018-09-06T04:36:09.128Z,39.40
2018-09-06T04:38:37.334Z,44.67
2018-09-06T04:41:05.607Z,37.53
2018-09-06T04:43:33.952Z,37.57
2018-09-06T04:46:02.087Z,34.10
2018-09-06T04:48:30.280Z,34.20
2018-09-06T04:50:58.519Z,28.23
2018-09-06T04:53:26.731Z,33.73
2018-09-06T04:55:54.971Z,33.10
2018-09-06T04:58:23.372Z,31.47
2018-09-06T05:00:51.564Z,28.83
2018-09-06T05:03:19.776Z,32.67
2018-09-06T05:05:48.083Z,30.57
2018-09-06T05:08:16.496Z,31.13
2018-09-06T05:10:45.041Z,35.80
2018-09-06T05:13:13.291Z,30.43
2018-09-06T05:15:41.515Z,26.67
2018-09-06T05:18:09.739Z,27.90
2018-09-06T05:20:38.130Z,28.00
2018-09-06T05:23:06.341Z,26.63
2018-09-06T05:25:34.813Z,30.50
2018-09-06T05:28:02.997Z,34.77
2018-09-06T05:30:31.194Z,30.73
2018-09-06T05:32:59.486Z,26.20
2018-09-06T05:35:27.673Z,24.93
2018-09-06T05:37:55.884Z,20.60
2018-09-06T05:40:24.129Z,26.17
2018-09-06T05:42:52.338Z,30.90
2018-09-06T05:45:20.622Z,28.83
2018-09-06T05:47:54.290Z,27.90
2018-09-06T05:50:22.518Z,32.30
2018-09-06T05:52:51.118Z,32.93
2018-09-06T05:55:19.605Z,39.23
2018-09-06T05:57:47.896Z,37.23
2018-09-06T06:00:21.404Z,37.30
2018-09-06T06:02:50.667Z,33.13
2018-09-06T06:05:18.918Z,34.30
2018-09-06T06:07:58.510Z,32.80
2018-09-06T06:10:26.775Z,40.30
2018-09-06T06:12:55.265Z,40.43
2018-09-06T06:15:23.564Z,37.73
2018-09-06T06:17:51.811Z,37.63
2018-09-06T06:20:20.142Z,35.07
2018-09-06T06:22:48.342Z,33.00
2018-09-06T06:25:16.531Z,32.90
2018-09-06T06:27:44.797Z,31.80
2018-09-06T06:30:13.147Z,33.20
2018-09-06T06:32:41.473Z,33.10
2018-09-06T06:35:09.682Z,37.33
2018-09-06T06:37:37.967Z,38.07
2018-09-06T06:40:06.254Z,32.10
2018-09-06T06:42:34.921Z,35.97
2018-09-06T06:45:03.172Z,38.60
2018-09-06T06:47:31.410Z,38.50
2018-09-06T06:49:59.594Z,38.20
2018-09-06T06:52:27.826Z,38.63
2018-09-06T06:54:56.093Z,37.00
2018-09-06T06:57:24.359Z,37.57
2018-09-06T06:59:52.546Z,35.03
2018-09-06T07:02:20.781Z,35.83
2018-09-06T07:04:49.002Z,40.17
2018-09-06T07:07:17.325Z,38.50
2018-09-06T07:09:45.513Z,32.57
2018-09-06T07:12:13.714Z,37.33
2018-09-06T07:14:41.918Z,36.30
2018-09-06T07:17:10.106Z,36.97
2018-09-06T07:19:38.314Z,32.80
2018-09-06T07:22:06.531Z,37.23
2018-09-06T07:24:34.767Z,34.23
2018-09-06T07:27:03.051Z,37.17
2018-09-06T07:29:31.262Z,33.77
2018-09-06T07:31:59.574Z,42.93
2018-09-06T07:34:27.765Z,35.97
2018-09-06T07:36:55.969Z,35.93
2018-09-06T07:39:24.151Z,37.97
2018-09-06T07:41:52.388Z,33.23
2018-09-06T07:44:21.422Z,34.27
2018-09-06T07:46:49.702Z,36.33
2018-09-06T07:49:17.919Z,36.43
2018-09-06T07:51:46.138Z,37.60
2018-09-06T07:54:14.338Z,37.97
2018-09-06T07:56:42.603Z,40.13
2018-09-06T07:59:10.933Z,38.03
2018-09-06T08:01:39.209Z,38.17
2018-09-06T08:04:07.340Z,37.43
2018-09-06T08:06:35.515Z,40.77
2018-09-06T08:09:05.410Z,35.27
2018-09-06T08:11:33.631Z,35.57
2018-09-06T08:14:01.856Z,33.40
2018-09-06T08:16:30.054Z,36.20
2018-09-06T08:18:58.335Z,37.67
2018-09-06T08:21:26.452Z,39.33
2018-09-06T08:23:54.675Z,31.50
2018-09-06T08:26:22.882Z,35.67
2018-09-06T08:28:51.111Z,31.77
2018-09-06T08:31:19.300Z,37.07
2018-09-06T08:33:47.559Z,33.67
2018-09-06T08:36:15.893Z,36.00
2018-09-06T08:38:44.318Z,33.50
2018-09-06T08:41:12.474Z,34.40
2018-09-06T08:43:40.654Z,28.97
2018-09-06T08:46:08.971Z,31.13
2018-09-06T08:48:37.272Z,30.07
2018-09-06T08:51:06.449Z,27.50
2018-09-06T08:53:34.706Z,27.83
2018-09-06T08:56:03.187Z,26.83
2018-09-06T08:58:31.497Z,31.67
2018-09-06T09:01:05.050Z,31.23
2018-09-06T09:03:33.347Z,30.30
2018-09-06T09:06:01.603Z,30.83
2018-09-06T09:08:29.891Z,30.57
2018-09-06T09:10:58.044Z,28.90
2018-09-06T09:13:26.398Z,24.73
2018-09-06T09:15:54.664Z,29.13
2018-09-06T09:18:22.926Z,28.63
2018-09-06T09:20:51.186Z,28.13
2018-09-06T09:23:19.359Z,31.90
2018-09-06T09:25:47.660Z,34.23
2018-09-06T09:28:15.881Z,36.97
2018-09-06T09:30:44.229Z,34.93
2018-09-06T09:33:12.420Z,33.03
2018-09-06T09:35:40.630Z,33.87
2018-09-06T09:38:09.024Z,33.93
2018-09-06T09:40:37.298Z,35.43
2018-09-06T09:43:05.842Z,31.07
2018-09-06T09:45:34.054Z,33.17
2018-09-06T09:48:02.238Z,32.83
2018-09-06T09:52:57.966Z,29.83
2018-09-06T09:55:26.154Z,28.17
2018-09-06T09:57:54.345Z,26.23
2018-09-06T10:00:27.767Z,25.23
2018-09-06T10:03:01.316Z,29.40
2018-09-06T10:05:34.914Z,29.57
2018-09-06T10:08:07.354Z,27.07
2018-09-06T10:10:35.637Z,27.13
2018-09-06T10:13:03.863Z,29.57
2018-09-06T10:15:32.147Z,28.63
2018-09-06T10:18:00.481Z,28.80
2018-09-06T10:20:28.683Z,25.13
2018-09-06T10:22:56.999Z,25.20
2018-09-06T10:25:25.247Z,26.07
2018-09-06T10:27:53.653Z,27.97
2018-09-06T10:30:22.399Z,30.97
2018-09-06T10:32:50.743Z,29.50
2018-09-06T10:35:19.046Z,30.90
2018-09-06T10:37:47.316Z,27.30
2018-09-06T10:40:15.513Z,44.00
2018-09-06T10:42:43.799Z,41.67
2018-09-06T10:45:12.071Z,47.80
2018-09-06T10:47:40.420Z,49.83
2018-09-06T10:50:08.581Z,46.10
2018-09-06T10:52:36.956Z,54.70
2018-09-06T10:55:05.244Z,51.53
2018-09-06T10:57:33.484Z,49.87
2018-09-06T11:00:01.678Z,60.53
2018-09-06T11:02:29.927Z,55.33
2018-09-06T11:04:58.207Z,49.70
2018-09-06T11:07:26.468Z,51.97
2018-09-06T11:09:54.676Z,50.10
2018-09-06T11:12:22.919Z,51.80
2018-09-06T11:14:51.127Z,49.97
2018-09-06T11:17:19.380Z,52.90
2018-09-06T11:19:47.708Z,49.70
2018-09-06T11:22:16.056Z,45.97
2018-09-06T11:24:44.134Z,49.77
2018-09-06T11:27:12.322Z,53.53
2018-09-06T11:29:40.511Z,42.50
2018-09-06T11:32:08.768Z,45.93
2018-09-06T11:34:37.091Z,48.53
2018-09-06T11:37:05.393Z,52.73
2018-09-06T11:39:33.603Z,52.77
2018-09-06T11:42:01.854Z,46.10
2018-09-06T11:44:30.149Z,47.87
2018-09-06T11:46:59.064Z,50.00
2018-09-06T11:49:27.218Z,42.43
2018-09-06T11:51:55.459Z,45.90
2018-09-06T11:54:23.703Z,47.63
2018-09-06T11:56:52.066Z,40.00
2018-09-06T11:59:20.279Z,41.50
2018-09-06T12:01:48.582Z,37.00
2018-09-06T12:04:17.105Z,35.23
2018-09-06T12:06:45.315Z,27.43
2018-09-06T12:09:13.496Z,39.20
2018-09-06T12:11:41.841Z,35.43
2018-09-06T12:14:10.071Z,38.43
2018-09-06T12:16:38.262Z,32.43
2018-09-06T12:19:06.459Z,36.87
2018-09-06T12:21:34.895Z,37.80
2018-09-06T12:24:03.462Z,36.87
2018-09-06T12:26:31.773Z,36.50
2018-09-06T12:29:00.017Z,40.60
2018-09-06T12:31:28.188Z,34.50
2018-09-06T12:33:56.521Z,33.83
2018-09-06T12:36:24.811Z,32.80
2018-09-06T12:38:53.139Z,36.87
2018-09-06T12:41:21.354Z,35.57
2018-09-06T12:43:49.538Z,35.97
2018-09-06T12:46:17.746Z,31.10
2018-09-06T12:48:46.044Z,33.40
2018-09-06T12:51:14.323Z,33.87
2018-09-06T12:53:42.607Z,31.83
2018-09-06T12:56:10.831Z,29.20
2018-09-06T12:58:39.123Z,27.20
2018-09-06T13:01:07.464Z,28.13
2018-09-06T13:03:35.799Z,25.83
2018-09-06T13:06:04.050Z,34.50
2018-09-06T13:08:32.331Z,34.27
2018-09-06T13:11:00.558Z,33.27
2018-09-06T13:13:28.775Z,33.73
2018-09-06T13:15:56.963Z,33.97
2018-09-06T13:18:25.202Z,31.97
2018-09-06T13:20:53.415Z,35.90
2018-09-06T13:23:21.658Z,32.57
2018-09-06T13:25:49.903Z,36.80
2018-09-06T13:28:18.141Z,38.67
2018-09-06T13:30:46.381Z,37.73
2018-09-06T13:33:14.689Z,48.97
2018-09-06T13:35:42.979Z,42.33
2018-09-06T13:38:11.115Z,39.43
2018-09-06T13:40:39.363Z,42.97
2018-09-06T13:43:07.563Z,40.53
2018-09-06T13:45:35.817Z,45.77
2018-09-06T13:48:04.038Z,42.83
2018-09-06T13:50:32.295Z,42.77
2018-09-06T13:53:00.667Z,37.47
2018-09-06T13:55:29.129Z,36.30
2018-09-06T13:57:57.358Z,40.53
2018-09-06T14:00:25.547Z,42.00
2018-09-06T14:02:53.727Z,43.30
2018-09-06T14:05:21.931Z,42.37
2018-09-06T14:07:50.175Z,44.53
2018-09-06T14:10:18.397Z,48.47
2018-09-06T14:12:46.593Z,40.63
2018-09-06T14:15:14.858Z,49.57
2018-09-06T14:17:43.112Z,47.33
2018-09-06T14:20:11.399Z,46.40
2018-09-06T14:22:39.647Z,47.50
2018-09-06T14:25:07.855Z,46.90
2018-09-06T14:27:36.079Z,43.77
2018-09-06T14:30:04.382Z,47.57
2018-09-06T14:32:32.621Z,44.13
2018-09-06T14:35:00.850Z,44.50
2018-09-06T14:37:29.020Z,45.40
2018-09-06T14:39:57.249Z,44.57
2018-09-06T14:42:25.452Z,45.70
2018-09-06T14:44:53.687Z,44.97
2018-09-06T14:47:21.892Z,39.70
2018-09-06T14:49:50.143Z,43.97
2018-09-06T14:52:18.426Z,40.23
2018-09-06T14:54:46.747Z,43.43
2018-09-06T14:57:15.017Z,41.10
2018-09-06T14:59:43.271Z,44.33
2018-09-06T15:02:11.474Z,46.07
2018-09-06T15:04:39.691Z,46.80
2018-09-06T15:07:07.979Z,50.43
2018-09-06T15:09:36.218Z,46.97
2018-09-06T15:12:05.912Z,49.37
2018-09-06T15:14:34.216Z,49.30
2018-09-06T15:17:02.487Z,55.23
2018-09-06T15:19:30.796Z,49.57
2018-09-06T15:22:02.598Z,50.03
2018-09-06T15:24:30.772Z,46.60
2018-09-06T15:26:59.039Z,48.43
2018-09-06T15:29:27.255Z,52.30
2018-09-06T15:31:55.476Z,50.87
2018-09-06T15:34:24.414Z,49.97
2018-09-06T15:36:52.662Z,52.07
2018-09-06T15:39:20.884Z,55.33
2018-09-06T15:41:49.102Z,57.30
2018-09-06T15:44:17.328Z,53.87
2018-09-06T15:46:45.605Z,54.23
2018-09-06T15:49:13.899Z,48.53
2018-09-06T15:51:42.123Z,51.33
2018-09-06T15:54:10.402Z,55.63
2018-09-06T15:56:38.586Z,46.30
2018-09-06T15:59:07.147Z,45.53
2018-09-06T16:01:35.478Z,46.97
2018-09-06T16:04:03.689Z,43.40
2018-09-06T16:06:31.901Z,42.73
2018-09-06T16:09:00.120Z,47.13
2018-09-06T16:11:28.323Z,45.23
2018-09-06T16:13:56.552Z,43.17
2018-09-06T16:16:24.752Z,42.03
2018-09-06T16:18:52.966Z,48.47
2018-09-06T16:21:21.150Z,35.73
2018-09-06T16:23:49.347Z,42.93
2018-09-06T16:26:17.543Z,37.47
2018-09-06T16:28:45.787Z,36.23
2018-09-06T16:31:14.051Z,44.97
2018-09-06T16:33:42.346Z,37.27
2018-09-06T16:36:10.568Z,44.80
2018-09-06T16:38:38.775Z,39.70
2018-09-06T16:41:06.978Z,40.93
2018-09-06T16:43:35.311Z,38.77
2018-09-06T16:46:03.551Z,39.37
2018-09-06T16:48:31.742Z,34.80
2018-09-06T16:50:59.974Z,37.67
2018-09-06T16:53:28.185Z,32.90
2018-09-06T16:55:56.463Z,34.30
2018-09-06T16:58:24.701Z,32.80
2018-09-06T17:00:53.034Z,36.03
2018-09-06T17:03:21.179Z,37.17
2018-09-06T17:05:49.367Z,30.63
2018-09-06T17:08:17.618Z,32.23
2018-09-06T17:10:45.807Z,33.17
2018-09-06T17:13:14.030Z,30.57
2018-09-06T17:15:42.252Z,35.17
2018-09-06T17:18:10.449Z,33.73
2018-09-06T17:20:38.672Z,32.60
2018-09-06T17:23:06.981Z,28.17
2018-09-06T17:25:35.178Z,34.23
2018-09-06T17:28:06.967Z,36.23
2018-09-06T17:30:35.270Z,28.57
2018-09-06T17:33:03.550Z,34.37
2018-09-06T17:35:31.717Z,36.57
2018-09-06T17:37:59.894Z,28.80
2018-09-06T17:40:28.216Z,34.77
2018-09-06T17:42:56.575Z,34.43
2018-09-06T17:45:24.986Z,36.90
2018-09-06T17:47:53.269Z,38.17
2018-09-06T17:50:21.439Z,35.73
2018-09-06T17:52:49.664Z,31.97
2018-09-06T17:55:17.850Z,34.03
2018-09-06T17:57:46.061Z,34.37
2018-09-06T18:00:14.264Z,37.47
2018-09-06T18:02:42.506Z,34.53
2018-09-06T18:05:10.717Z,40.00
2018-09-06T18:07:38.930Z,37.07
2018-09-06T18:10:07.204Z,33.23
2018-09-06T18:12:35.433Z,37.33
2018-09-06T18:15:03.658Z,32.93
2018-09-06T18:17:31.989Z,35.57
2018-09-06T18:20:00.202Z,35.43
2018-09-06T18:22:28.497Z,34.80
2018-09-06T18:24:56.799Z,27.70
2018-09-06T18:27:25.027Z,30.17
2018-09-06T18:29:53.326Z,31.63
2018-09-06T18:32:21.627Z,31.93
2018-09-06T18:34:49.943Z,33.20
2018-09-06T18:37:18.113Z,30.07
2018-09-06T18:39:46.475Z,28.30
2018-09-06T18:42:14.665Z,28.53
2018-09-06T18:44:49.212Z,27.47
2018-09-06T18:47:17.595Z,22.67
2018-09-06T18:49:45.813Z,22.37
2018-09-06T18:52:13.994Z,26.27
2018-09-06T18:54:42.217Z,20.77
2018-09-06T18:57:10.418Z,17.83
2018-09-06T18:59:38.627Z,16.33
2018-09-06T19:02:06.884Z,14.97
2018-09-06T19:04:35.015Z,12.50
2018-09-06T19:07:03.235Z,14.17
2018-09-06T19:09:31.536Z,16.80
2018-09-06T19:11:59.767Z,13.43
2018-09-06T19:14:28.475Z,15.43
2018-09-06T19:16:56.643Z,15.13
2018-09-06T19:19:24.947Z,16.23
2018-09-06T19:21:53.154Z,14.47
2018-09-06T19:24:21.368Z,13.70
2018-09-06T19:26:49.543Z,12.33
2018-09-06T19:29:17.742Z,11.53
2018-09-06T19:31:46.142Z,13.70
2018-09-06T19:34:14.279Z,10.23
2018-09-06T19:36:42.468Z,13.37
2018-09-06T19:39:12.022Z,11.63
2018-09-06T19:41:40.174Z,12.00
2018-09-06T19:44:08.422Z,10.47
2018-09-06T19:46:36.894Z,11.03
2018-09-06T19:49:05.229Z,9.80
2018-09-06T19:51:33.445Z,10.73
2018-09-06T19:54:01.649Z,9.77
2018-09-06T19:56:29.844Z,9.13
2018-09-06T19:58:58.003Z,9.23
2018-09-06T20:01:26.274Z,11.33
2018-09-06T20:03:54.478Z,8.90
2018-09-06T20:06:22.651Z,9.13
2018-09-06T20:08:50.964Z,11.70
2018-09-06T20:11:19.159Z,11.17
2018-09-06T20:13:47.423Z,11.37
2018-09-06T20:16:15.682Z,9.70
2018-09-06T20:18:43.863Z,9.27
2018-09-06T20:21:12.355Z,9.43
2018-09-06T20:23:40.559Z,8.60
2018-09-06T20:26:08.802Z,9.20
2018-09-06T20:28:37.031Z,9.17
2018-09-06T20:31:05.611Z,10.53
2018-09-06T20:33:34.050Z,9.47
2018-09-06T20:36:02.300Z,9.50
2018-09-06T20:38:30.528Z,9.93
2018-09-06T20:40:58.696Z,8.17
2018-09-06T20:43:26.918Z,9.70
2018-09-06T20:45:55.110Z,10.23
2018-09-06T20:48:23.523Z,9.50
2018-09-06T20:50:51.885Z,9.63
2018-09-06T20:53:20.248Z,8.67
2018-09-06T20:55:48.707Z,8.73
2018-09-06T20:58:16.923Z,10.33
2018-09-06T21:00:45.106Z,9.50
2018-09-06T21:03:13.417Z,9.63
2018-09-06T21:05:41.703Z,11.37
2018-09-06T21:08:09.930Z,10.60
2018-09-06T21:10:38.270Z,9.80
2018-09-06T21:13:06.564Z,10.87
2018-09-06T21:15:35.076Z,10.73
2018-09-06T21:18:03.488Z,11.00
2018-09-06T21:20:31.808Z,11.27
2018-09-06T21:23:00.224Z,10.43
2018-09-06T21:25:28.587Z,11.80
2018-09-06T21:27:56.967Z,11.10
2018-09-06T21:30:25.444Z,10.87
2018-09-06T21:32:53.741Z,14.03
2018-09-06T21:35:22.219Z,11.30
2018-09-06T21:37:50.664Z,10.90
2018-09-06T21:40:19.072Z,12.43
2018-09-06T21:42:47.290Z,11.63
2018-09-06T21:45:15.648Z,12.40
2018-09-06T21:47:43.996Z,11.83
2018-09-06T21:50:12.347Z,12.00
2018-09-06T21:52:40.855Z,10.43
2018-09-06T21:55:09.239Z,11.00
2018-09-06T21:57:37.643Z,12.40
2018-09-06T22:00:06.683Z,12.93
2018-09-06T22:02:40.320Z,11.07
2018-09-06T22:05:08.682Z,12.07
2018-09-06T22:07:37.363Z,11.20
2018-09-06T22:10:06.026Z,9.80
2018-09-06T22:12:34.396Z,11.93
2018-09-06T22:15:02.896Z,10.87
2018-09-06T22:17:31.091Z,10.20
2018-09-06T22:19:59.399Z,9.60
2018-09-06T22:22:27.766Z,10.87
2018-09-06T22:24:56.136Z,10.23
2018-09-06T22:27:24.362Z,11.00
2018-09-06T22:29:52.575Z,10.60
2018-09-06T22:32:20.939Z,10.87
2018-09-06T22:34:49.435Z,12.67
2018-09-06T22:37:17.628Z,12.47
2018-09-06T22:39:45.816Z,10.53
2018-09-06T22:42:14.116Z,10.47
2018-09-06T22:44:42.280Z,12.10
2018-09-06T22:47:10.500Z,9.80
2018-09-06T22:49:38.722Z,10.30
2018-09-06T22:52:06.942Z,10.83
2018-09-06T22:54:35.132Z,10.20
2018-09-06T22:57:03.338Z,10.10
2018-09-06T22:59:31.531Z,10.70
2018-09-06T23:01:59.995Z,11.83
2018-09-06T23:04:28.232Z,10.03
2018-09-06T23:06:56.429Z,12.20
2018-09-06T23:09:24.603Z,10.03
2018-09-06T23:11:52.816Z,12.63
2018-09-06T23:14:21.023Z,11.53
2018-09-06T23:16:49.240Z,14.20
2018-09-06T23:19:17.479Z,12.67
2018-09-06T23:21:45.703Z,12.13
2018-09-06T23:24:13.945Z,13.70
2018-09-06T23:26:43.843Z,14.20
2018-09-06T23:29:12.096Z,13.20
2018-09-06T23:31:40.370Z,11.70
2018-09-06T23:34:08.609Z,9.47
2018-09-06T23:36:36.815Z,9.53
2018-09-06T23:39:06.694Z,12.07
2018-09-06T23:41:34.910Z,10.13
2018-09-06T23:44:03.171Z,9.87
2018-09-06T23:46:31.402Z,11.67
2018-09-06T23:48:59.622Z,12.20
2018-09-06T23:51:27.814Z,11.10
2018-09-06T23:53:56.028Z,10.20
2018-09-06T23:56:24.245Z,10.93
2018-09-06T23:58:52.515Z,8.80
